Time;durP1;ratioP1;P1;durP2;ratioP2;P2;SDS_P1;SDS_P2;PMS_P1;PMS_P2;Temp;Humidity;BMP_temperature;BMP_pressure;BME280_temperature;BME280_humidity;BME280_pressure;Samples;Min_cycle;Max_cycle;Signal;HPM_P1;HPM_P2
2023/07/03 00:02:18;;;;;;;27.50;24.70;;;12.60;99.90;;;;;;4993444;28;20049;-70
2023/07/03 00:04:48;;;;;;;34.22;24.75;;;12.60;99.90;;;;;;4995465;28;20107;-70
2023/07/03 00:07:15;;;;;;;28.08;25.23;;;12.50;99.90;;;;;;4994872;28;20038;-70
2023/07/03 00:09:43;;;;;;;27.42;24.52;;;12.40;99.90;;;;;;4994745;28;20042;-70
2023/07/03 00:12:11;;;;;;;29.80;24.67;;;12.40;99.90;;;;;;4993316;28;20563;-70
2023/07/03 00:14:38;;;;;;;26.05;23.55;;;12.20;99.90;;;;;;4996143;28;20042;-70
2023/07/03 00:17:07;;;;;;;27.27;24.42;;;12.30;99.90;;;;;;4992670;28;20115;-69
2023/07/03 00:19:34;;;;;;;26.55;23.83;;;12.20;99.90;;;;;;4996503;28;20606;-70
2023/07/03 00:22:01;;;;;;;25.67;23.40;;;12.10;99.90;;;;;;4990322;28;20098;-71
2023/07/03 00:24:29;;;;;;;26.48;23.65;;;12.00;99.90;;;;;;4996621;28;20054;-71
2023/07/03 00:26:56;;;;;;;26.80;24.27;;;12.00;99.90;;;;;;4993008;28;20108;-69
2023/07/03 00:29:23;;;;;;;26.67;23.95;;;12.00;99.90;;;;;;4995468;28;20038;-70
2023/07/03 00:31:50;;;;;;;29.60;23.10;;;11.90;99.90;;;;;;4981509;28;20038;-69
2023/07/03 00:34:18;;;;;;;26.50;23.48;;;12.20;99.90;;;;;;4997105;28;20049;-70
2023/07/03 00:36:46;;;;;;;29.92;22.33;;;12.30;99.90;;;;;;4989945;28;20042;-70
2023/07/03 00:39:14;;;;;;;26.65;23.90;;;12.30;99.90;;;;;;4994013;28;20054;-70
2023/07/03 00:41:42;;;;;;;26.42;23.73;;;12.30;99.90;;;;;;4995118;28;20551;-72
2023/07/03 00:44:16;;;;;;;25.33;23.00;;;12.50;99.90;;;;;;4975775;28;20041;-71
2023/07/03 00:46:46;;;;;;;25.02;22.45;;;12.50;99.90;;;;;;4993487;28;20078;-69
2023/07/03 00:49:13;;;;;;;24.85;22.35;;;12.60;99.90;;;;;;4994732;28;20589;-69
2023/07/03 00:51:44;;;;;;;26.50;23.73;;;12.80;99.90;;;;;;4994491;28;20678;-69
2023/07/03 00:54:11;;;;;;;29.52;24.15;;;12.80;99.90;;;;;;4992071;28;20586;-71
2023/07/03 00:56:39;;;;;;;26.30;23.50;;;12.80;99.90;;;;;;4997019;28;20540;-71
2023/07/03 00:59:07;;;;;;;28.83;23.52;;;12.80;99.90;;;;;;4992697;28;20041;-71
2023/07/03 01:02:07;;;;;;;26.45;23.67;;;12.70;99.90;;;;;;4995408;28;20042;-71
2023/07/03 01:04:40;;;;;;;29.00;23.75;;;12.60;99.90;;;;;;4989953;28;20056;-71
2023/07/03 01:07:12;;;;;;;25.13;22.80;;;12.60;99.90;;;;;;4995574;28;20045;-70
2023/07/03 01:09:51;;;;;;;24.83;22.42;;;12.60;99.90;;;;;;4997311;28;20133;-72
2023/07/03 01:12:21;;;;;;;25.60;23.02;;;12.50;99.90;;;;;;4994715;28;20042;-69
2023/07/03 01:14:49;;;;;;;25.35;22.90;;;12.40;99.90;;;;;;4998232;28;20078;-69
2023/07/03 01:17:16;;;;;;;24.70;21.90;;;12.50;99.90;;;;;;4989577;28;20116;-69
2023/07/03 01:19:46;;;;;;;27.15;22.73;;;12.50;99.90;;;;;;4996722;28;20046;-71
2023/07/03 01:22:36;;;;;;;25.42;22.88;;;12.50;99.90;;;;;;4989987;28;20101;-71
2023/07/03 01:25:09;;;;;;;31.60;23.25;;;12.60;99.90;;;;;;4996055;28;20057;-71
2023/07/03 01:27:42;;;;;;;25.45;23.15;;;12.60;99.90;;;;;;4993983;28;20609;-71
2023/07/03 01:30:13;;;;;;;27.30;24.60;;;12.70;99.90;;;;;;4993211;28;21068;-71
2023/07/03 01:32:43;;;;;;;26.38;23.25;;;12.90;99.90;;;;;;4993821;28;20045;-71
2023/07/03 01:35:11;;;;;;;27.45;24.60;;;13.10;99.90;;;;;;4989912;28;20604;-70
2023/07/03 01:37:41;;;;;;;27.30;24.60;;;13.20;99.90;;;;;;4993790;28;20100;-71
2023/07/03 01:40:12;;;;;;;26.30;23.40;;;13.30;99.90;;;;;;4993436;28;20042;-70
2023/07/03 01:42:40;;;;;;;26.83;24.27;;;13.40;99.90;;;;;;4995915;28;20104;-70
2023/07/03 01:45:09;;;;;;;25.60;22.92;;;13.50;99.90;;;;;;4993524;28;20049;-71
2023/07/03 01:47:37;;;;;;;27.60;24.70;;;13.50;99.90;;;;;;4994820;28;20058;-70
2023/07/03 01:50:07;;;;;;;26.63;23.90;;;13.50;99.90;;;;;;4992520;28;20038;-70
2023/07/03 01:52:39;;;;;;;27.65;24.70;;;13.40;99.90;;;;;;4993011;28;20042;-71
2023/07/03 01:55:06;;;;;;;26.98;24.13;;;13.40;99.90;;;;;;4991722;28;20138;-69
2023/07/03 01:57:40;;;;;;;27.42;24.83;;;13.40;99.90;;;;;;5001293;28;20129;-70
2023/07/03 02:00:10;;;;;;;26.55;23.75;;;13.40;99.90;;;;;;4991503;28;20100;-69
2023/07/03 02:02:44;;;;;;;28.33;24.42;;;13.40;99.90;;;;;;4994064;28;20076;-70
2023/07/03 02:05:22;;;;;;;27.85;24.88;;;13.50;99.90;;;;;;4989366;28;20057;-70
2023/07/03 02:07:54;;;;;;;26.98;23.58;;;13.40;99.90;;;;;;4995425;28;20468;-71
2023/07/03 02:10:21;;;;;;;32.50;23.48;;;13.40;99.90;;;;;;4994503;28;20108;-70
2023/07/03 02:12:50;;;;;;;30.50;24.75;;;13.40;99.90;;;;;;4995417;28;20045;-70
2023/07/03 02:15:21;;;;;;;26.25;23.50;;;13.40;99.90;;;;;;4993151;28;20525;-69
2023/07/03 02:17:51;;;;;;;28.08;23.63;;;13.50;99.90;;;;;;4993383;28;20045;-70
2023/07/03 02:20:19;;;;;;;25.23;22.90;;;13.50;99.90;;;;;;5006488;28;20046;-70
2023/07/03 02:22:46;;;;;;;28.50;23.73;;;13.50;99.90;;;;;;4995013;28;20054;-70
2023/07/03 02:25:14;;;;;;;28.30;22.70;;;13.50;99.90;;;;;;4987682;28;20108;-69
2023/07/03 02:27:43;;;;;;;25.95;22.83;;;13.50;99.90;;;;;;4995563;28;20038;-70
2023/07/03 02:30:10;;;;;;;28.40;23.60;;;13.50;99.90;;;;;;4992184;28;20133;-69
2023/07/03 02:32:39;;;;;;;26.38;23.58;;;13.50;99.90;;;;;;4994691;28;20666;-69
2023/07/03 02:35:07;;;;;;;28.17;23.02;;;13.50;99.90;;;;;;4990935;28;20042;-69
2023/07/03 02:37:34;;;;;;;26.13;23.10;;;13.40;99.90;;;;;;4994330;28;20042;-70
2023/07/03 02:40:01;;;;;;;29.30;22.90;;;13.40;99.90;;;;;;4990982;28;20056;-69
2023/07/03 02:42:29;;;;;;;29.17;22.75;;;13.40;99.90;;;;;;4990989;28;20046;-70
2023/07/03 02:44:57;;;;;;;30.70;23.40;;;13.40;99.90;;;;;;4975400;28;20053;-71
2023/07/03 02:47:26;;;;;;;26.45;23.73;;;13.30;99.90;;;;;;4973984;28;20062;-69
2023/07/03 02:49:54;;;;;;;26.05;23.33;;;13.30;99.90;;;;;;4981599;28;20127;-69
2023/07/03 02:52:21;;;;;;;26.92;23.25;;;13.30;99.90;;;;;;4991232;28;20451;-70
2023/07/03 02:54:50;;;;;;;25.40;22.85;;;13.30;99.90;;;;;;4978293;28;20118;-71
2023/07/03 02:57:16;;;;;;;25.35;22.67;;;13.20;99.90;;;;;;4986557;28;20045;-70
2023/07/03 02:59:43;;;;;;;30.85;23.30;;;13.10;99.90;;;;;;4991322;28;20458;-69
2023/07/03 03:02:11;;;;;;;26.80;22.90;;;13.10;99.90;;;;;;4984696;28;20069;-70
2023/07/03 03:04:38;;;;;;;30.30;24.27;;;13.10;99.90;;;;;;4992707;28;20384;-70
2023/07/03 03:07:05;;;;;;;26.63;22.90;;;13.00;99.90;;;;;;4973883;28;20045;-70
2023/07/03 03:09:31;;;;;;;25.02;22.45;;;13.00;99.90;;;;;;4991892;28;20038;-70
2023/07/03 03:11:59;;;;;;;30.17;23.05;;;13.00;99.90;;;;;;4973855;28;20038;-69
2023/07/03 03:14:25;;;;;;;26.20;23.30;;;13.10;99.90;;;;;;4991767;28;20042;-69
2023/07/03 03:16:53;;;;;;;33.45;23.02;;;13.10;99.90;;;;;;4993258;28;20042;-70
2023/07/03 03:19:20;;;;;;;24.77;22.10;;;13.10;99.90;;;;;;4992351;28;20046;-69
2023/07/03 03:21:49;;;;;;;25.33;22.60;;;13.00;99.90;;;;;;4972884;28;20071;-70
2023/07/03 03:24:17;;;;;;;28.55;25.58;;;13.00;99.90;;;;;;4972122;28;20054;-69
2023/07/03 03:26:44;;;;;;;28.42;22.70;;;12.90;99.90;;;;;;4991639;28;20053;-70
2023/07/03 03:29:11;;;;;;;26.67;21.83;;;12.90;99.90;;;;;;4988865;28;20459;-70
2023/07/03 03:31:38;;;;;;;26.02;22.13;;;12.80;99.90;;;;;;4990416;28;20042;-69
2023/07/03 03:34:06;;;;;;;26.33;22.40;;;12.80;99.90;;;;;;4990230;28;20056;-70
2023/07/03 03:36:33;;;;;;;29.73;25.45;;;12.80;99.90;;;;;;4992424;28;20563;-69
2023/07/03 03:39:00;;;;;;;29.10;25.08;;;12.70;99.90;;;;;;4989766;28;20802;-70
2023/07/03 03:41:28;;;;;;;29.65;24.83;;;12.70;99.90;;;;;;4991053;28;20050;-70
2023/07/03 03:43:55;;;;;;;29.08;25.88;;;12.70;99.90;;;;;;4991068;28;20046;-69
2023/07/03 03:46:23;;;;;;;34.83;24.27;;;12.70;99.90;;;;;;4987577;28;20129;-69
2023/07/03 03:48:50;;;;;;;26.58;24.02;;;12.70;99.90;;;;;;4996727;28;20053;-69
2023/07/03 03:51:17;;;;;;;30.75;25.05;;;12.70;99.90;;;;;;4984615;28;21333;-69
2023/07/03 03:53:45;;;;;;;28.17;25.00;;;12.80;99.90;;;;;;4978478;28;20100;-71
2023/07/03 03:56:14;;;;;;;29.20;25.33;;;12.80;99.90;;;;;;4987543;28;20133;-72
2023/07/03 03:58:41;;;;;;;31.05;25.23;;;12.80;99.90;;;;;;4995298;28;20136;-70
2023/07/03 04:01:08;;;;;;;26.95;23.83;;;12.80;99.90;;;;;;4977453;28;20054;-69
2023/07/03 04:03:35;;;;;;;31.88;25.33;;;12.80;99.90;;;;;;4992307;28;20069;-72
2023/07/03 04:06:02;;;;;;;27.38;24.77;;;12.80;99.90;;;;;;4989031;28;20041;-71
2023/07/03 04:08:28;;;;;;;28.88;25.70;;;12.80;99.90;;;;;;4995705;28;20081;-69
2023/07/03 04:10:55;;;;;;;27.35;24.50;;;12.90;99.90;;;;;;4992310;28;20647;-69
2023/07/03 04:13:22;;;;;;;26.95;24.05;;;12.80;99.90;;;;;;4989941;28;20042;-69
2023/07/03 04:15:52;;;;;;;28.40;25.45;;;12.80;99.90;;;;;;4992390;28;20092;-72
2023/07/03 04:18:21;;;;;;;28.27;25.35;;;12.80;99.90;;;;;;4990743;28;20543;-69
2023/07/03 04:20:48;;;;;;;29.20;25.45;;;12.90;99.90;;;;;;4993605;28;20046;-70
2023/07/03 04:23:16;;;;;;;29.80;26.77;;;12.90;99.90;;;;;;4991178;28;20041;-69
2023/07/03 04:25:43;;;;;;;31.73;26.88;;;12.90;99.90;;;;;;4993212;28;20052;-69
2023/07/03 04:28:11;;;;;;;28.70;25.65;;;13.00;99.90;;;;;;4990507;28;20057;-69
2023/07/03 04:30:38;;;;;;;36.60;28.60;;;13.00;99.90;;;;;;4996692;28;20734;-69
2023/07/03 04:33:04;;;;;;;36.92;28.27;;;13.10;99.90;;;;;;4974938;28;20555;-69
2023/07/03 04:35:31;;;;;;;30.27;27.50;;;13.20;99.90;;;;;;4990479;28;20092;-69
2023/07/03 04:38:01;;;;;;;30.63;27.55;;;13.30;99.90;;;;;;4996514;28;20085;-68
2023/07/03 04:40:28;;;;;;;34.05;28.38;;;13.50;99.90;;;;;;4993917;28;20104;-69
2023/07/03 04:42:57;;;;;;;31.17;28.13;;;13.60;99.90;;;;;;4997054;28;20617;-70
2023/07/03 04:45:25;;;;;;;29.63;26.92;;;13.70;99.90;;;;;;4991902;28;20137;-72
2023/07/03 04:47:53;;;;;;;31.83;28.55;;;13.80;99.90;;;;;;4998256;28;20125;-71
2023/07/03 04:50:24;;;;;;;32.33;29.10;;;13.90;99.90;;;;;;4990246;28;20053;-71
2023/07/03 04:52:52;;;;;;;30.42;27.52;;;13.90;99.90;;;;;;4998198;28;20042;-71
2023/07/03 04:55:19;;;;;;;30.88;27.63;;;13.90;99.90;;;;;;4992319;28;20625;-71
2023/07/03 04:57:45;;;;;;;33.40;27.90;;;13.80;99.90;;;;;;4997772;28;20037;-71
2023/07/03 05:00:16;;;;;;;28.65;26.02;;;13.80;99.90;;;;;;4993924;28;20100;-69
2023/07/03 05:02:48;;;;;;;29.13;25.90;;;13.80;99.90;;;;;;4978790;28;20124;-70
2023/07/03 05:05:16;;;;;;;32.22;27.40;;;13.80;99.90;;;;;;4994402;28;20049;-70
2023/07/03 05:07:43;;;;;;;29.50;26.50;;;13.80;99.90;;;;;;4992784;28;20112;-70
2023/07/03 05:10:15;;;;;;;29.33;25.30;;;13.80;99.90;;;;;;4989095;28;20038;-69
2023/07/03 05:12:43;;;;;;;33.95;26.70;;;13.80;99.90;;;;;;4993776;28;20046;-69
2023/07/03 05:15:11;;;;;;;28.52;25.50;;;13.90;99.90;;;;;;4993674;28;20046;-70
2023/07/03 05:17:39;;;;;;;28.30;25.58;;;14.10;99.90;;;;;;4997624;28;20038;-69
2023/07/03 05:20:12;;;;;;;29.20;26.27;;;14.30;99.90;;;;;;5004924;28;20053;-70
2023/07/03 05:22:41;;;;;;;28.65;25.63;;;14.50;99.90;;;;;;4994414;28;20100;-69
2023/07/03 05:25:10;;;;;;;28.33;25.58;;;14.70;99.90;;;;;;4989823;28;20726;-72
2023/07/03 05:27:37;;;;;;;34.10;26.45;;;14.90;99.90;;;;;;4992672;28;20129;-71
2023/07/03 05:30:06;;;;;;;29.48;26.35;;;14.90;99.90;;;;;;4992293;28;20045;-72
2023/07/03 05:32:33;;;;;;;29.33;26.17;;;15.10;99.90;;;;;;4992842;28;20108;-71
2023/07/03 05:35:02;;;;;;;29.73;26.45;;;15.10;99.90;;;;;;4995150;28;20044;-72
2023/07/03 05:37:29;;;;;;;36.17;27.15;;;15.20;99.90;;;;;;4979010;28;20042;-72
2023/07/03 05:39:56;;;;;;;34.63;26.80;;;15.30;99.90;;;;;;4992292;28;20050;-72
2023/07/03 05:42:23;;;;;;;34.10;26.58;;;15.20;99.90;;;;;;4991665;28;20057;-72
2023/07/03 05:44:50;;;;;;;31.77;26.65;;;15.30;99.90;;;;;;4996883;28;20068;-72
2023/07/03 05:47:17;;;;;;;29.33;26.20;;;15.50;99.90;;;;;;4991701;28;20058;-72
2023/07/03 05:49:44;;;;;;;31.63;26.75;;;15.50;99.90;;;;;;4991925;28;20044;-73
2023/07/03 05:52:11;;;;;;;29.52;25.98;;;15.50;99.90;;;;;;4995777;28;20691;-72
2023/07/03 05:54:38;;;;;;;29.70;25.60;;;15.60;99.90;;;;;;4996136;28;20463;-72
2023/07/03 05:57:10;;;;;;;30.25;25.10;;;15.80;99.90;;;;;;4992641;28;20042;-71
2023/07/03 05:59:39;;;;;;;29.08;26.00;;;15.90;99.90;;;;;;4994466;28;20048;-72
2023/07/03 06:02:12;;;;;;;33.90;26.80;;;15.90;99.90;;;;;;4991832;28;20050;-72
2023/07/03 06:04:39;;;;;;;32.08;27.98;;;16.00;99.90;;;;;;4999922;28;20073;-72
2023/07/03 06:07:07;;;;;;;31.70;25.67;;;16.00;99.90;;;;;;4996495;28;20049;-72
2023/07/03 06:09:34;;;;;;;29.92;26.67;;;16.10;99.90;;;;;;4992466;28;20050;-70
2023/07/03 06:12:03;;;;;;;30.27;26.52;;;16.30;99.90;;;;;;4995436;28;20034;-72
2023/07/03 06:14:31;;;;;;;29.55;26.73;;;16.30;99.90;;;;;;4994102;28;20038;-72
2023/07/03 06:16:58;;;;;;;35.15;28.10;;;16.20;99.90;;;;;;4996432;28;20071;-71
2023/07/03 06:19:27;;;;;;;31.05;27.90;;;16.30;99.90;;;;;;4992563;28;20048;-71
2023/07/03 06:21:54;;;;;;;31.20;28.05;;;16.40;99.90;;;;;;4994108;28;20053;-71
2023/07/03 06:24:22;;;;;;;34.53;29.15;;;16.40;99.90;;;;;;4990288;28;20492;-69
2023/07/03 06:26:50;;;;;;;31.80;25.80;;;16.40;99.90;;;;;;4996360;28;20053;-70
2023/07/03 06:29:18;;;;;;;38.92;28.30;;;16.50;99.90;;;;;;4991500;28;20125;-70
2023/07/03 06:31:44;;;;;;;31.13;27.05;;;16.40;99.90;;;;;;4991926;28;20065;-70
2023/07/03 06:34:11;;;;;;;32.03;27.35;;;16.60;99.90;;;;;;4992908;28;20129;-72
2023/07/03 06:36:39;;;;;;;30.40;27.45;;;16.50;99.90;;;;;;4994077;28;20049;-69
2023/07/03 06:39:07;;;;;;;31.08;28.27;;;16.50;99.90;;;;;;4994138;28;20076;-70
2023/07/03 06:41:34;;;;;;;35.90;27.63;;;16.50;99.90;;;;;;4992900;28;20119;-69
2023/07/03 06:44:03;;;;;;;30.23;27.55;;;16.80;99.90;;;;;;4989576;28;20042;-70
2023/07/03 06:46:33;;;;;;;31.33;27.75;;;17.00;99.90;;;;;;4991124;28;20049;-69
2023/07/03 06:49:00;;;;;;;29.02;26.02;;;17.20;99.90;;;;;;4999660;28;20652;-70
2023/07/03 06:51:27;;;;;;;35.08;27.63;;;17.50;99.90;;;;;;4995135;28;20096;-71
2023/07/03 06:53:53;;;;;;;32.50;28.42;;;17.40;99.90;;;;;;5017782;28;20046;-71
2023/07/03 06:56:21;;;;;;;32.22;26.13;;;16.90;99.90;;;;;;4999450;28;20484;-70
2023/07/03 06:58:49;;;;;;;32.83;26.92;;;17.00;99.90;;;;;;5005527;28;20112;-71
2023/07/03 07:01:18;;;;;;;31.70;28.73;;;17.00;99.90;;;;;;4994786;28;20042;-71
2023/07/03 07:03:45;;;;;;;33.70;27.42;;;16.90;99.90;;;;;;4993039;28;20050;-71
2023/07/03 07:06:18;;;;;;;29.10;26.25;;;16.70;99.90;;;;;;4990389;28;20080;-70
2023/07/03 07:08:45;;;;;;;32.13;26.30;;;16.60;99.90;;;;;;4995062;28;20042;-72
2023/07/03 07:11:23;;;;;;;32.67;28.73;;;16.50;99.90;;;;;;4991621;28;20116;-71
2023/07/03 07:13:52;;;;;;;31.92;28.73;;;16.50;99.90;;;;;;4993195;28;20034;-70
2023/07/03 07:16:22;;;;;;;39.28;31.05;;;16.70;99.90;;;;;;4987178;28;20049;-70
2023/07/03 07:18:55;;;;;;;36.47;29.55;;;16.50;99.90;;;;;;4993877;28;20168;-70
2023/07/03 07:21:22;;;;;;;32.50;28.85;;;16.60;99.90;;;;;;4988049;28;20046;-70
2023/07/03 07:23:51;;;;;;;37.08;30.92;;;16.40;99.90;;;;;;4991708;28;20050;-70
2023/07/03 07:26:19;;;;;;;34.17;30.58;;;16.30;99.90;;;;;;4991217;28;20057;-70
2023/07/03 07:28:46;;;;;;;33.83;29.65;;;16.60;99.90;;;;;;4989043;28;20684;-71
2023/07/03 07:31:24;;;;;;;32.90;29.40;;;16.90;99.90;;;;;;4987590;28;20043;-70
2023/07/03 07:33:51;;;;;;;33.40;27.67;;;17.00;99.90;;;;;;4995255;28;20048;-70
2023/07/03 07:36:24;;;;;;;39.67;30.67;;;17.10;99.90;;;;;;4990041;28;20041;-71
2023/07/03 07:38:52;;;;;;;29.33;26.67;;;17.30;99.90;;;;;;4992322;28;20762;-70
2023/07/03 07:41:24;;;;;;;34.08;30.23;;;17.60;99.90;;;;;;4990615;28;20052;-70
2023/07/03 07:43:52;;;;;;;32.00;28.85;;;17.60;99.90;;;;;;4992959;28;20134;-69
2023/07/03 07:46:20;;;;;;;32.30;28.88;;;17.60;99.90;;;;;;4989665;28;20132;-69
2023/07/03 07:48:47;;;;;;;31.35;28.38;;;17.30;99.90;;;;;;4994307;28;20052;-70
2023/07/03 07:51:14;;;;;;;33.47;30.08;;;17.70;99.90;;;;;;4989573;28;20045;-69
2023/07/03 07:53:41;;;;;;;32.97;29.95;;;18.00;99.90;;;;;;4995570;28;20096;-70
2023/07/03 07:56:09;;;;;;;32.05;28.75;;;18.10;99.90;;;;;;4993910;28;20072;-70
2023/07/03 07:58:36;;;;;;;28.92;26.33;;;18.10;99.90;;;;;;4990149;28;20041;-69
2023/07/03 08:01:04;;;;;;;31.23;24.38;;;18.00;99.90;;;;;;4995551;28;20089;-71
2023/07/03 08:03:30;;;;;;;33.17;26.70;;;17.80;99.90;;;;;;4990710;28;20132;-70
2023/07/03 08:05:59;;;;;;;30.55;26.52;;;17.60;99.90;;;;;;4992791;28;20038;-70
2023/07/03 08:08:27;;;;;;;30.63;27.40;;;17.50;99.90;;;;;;4989979;28;20511;-69
2023/07/03 08:10:55;;;;;;;33.97;27.23;;;17.50;99.90;;;;;;4992212;28;20123;-69
2023/07/03 08:13:22;;;;;;;31.40;26.48;;;17.70;99.90;;;;;;4995112;28;20085;-69
2023/07/03 08:15:49;;;;;;;31.80;28.90;;;17.50;99.90;;;;;;4995844;28;20058;-69
2023/07/03 08:18:18;;;;;;;29.75;26.90;;;17.40;99.90;;;;;;4994425;28;20068;-69
2023/07/03 08:20:45;;;;;;;32.85;27.17;;;17.40;99.90;;;;;;4995331;28;20650;-69
2023/07/03 08:23:11;;;;;;;29.70;26.75;;;17.50;99.90;;;;;;4996709;28;20046;-69
2023/07/03 08:25:39;;;;;;;31.58;28.25;;;17.30;99.90;;;;;;4997552;28;20133;-70
2023/07/03 08:28:09;;;;;;;30.98;27.92;;;17.20;99.90;;;;;;4999649;28;20073;-69
2023/07/03 08:30:37;;;;;;;34.90;31.00;;;17.20;99.90;;;;;;4995524;28;20127;-70
2023/07/03 08:33:04;;;;;;;33.03;29.60;;;17.40;99.90;;;;;;4996934;28;20052;-70
2023/07/03 08:35:31;;;;;;;31.23;27.90;;;18.00;99.90;;;;;;4995521;28;20074;-69
2023/07/03 08:38:01;;;;;;;30.73;27.80;;;18.20;99.90;;;;;;4998914;28;20058;-70
2023/07/03 08:40:28;;;;;;;33.28;30.30;;;18.10;99.90;;;;;;4994861;28;20149;-69
2023/07/03 08:42:57;;;;;;;30.65;27.98;;;17.70;99.90;;;;;;4998374;28;20044;-70
2023/07/03 08:45:44;;;;;;;31.92;27.80;;;17.80;99.90;;;;;;4995878;28;20042;-71
2023/07/03 08:48:14;;;;;;;30.27;27.52;;;17.50;99.90;;;;;;4992682;28;20076;-70
2023/07/03 08:50:49;;;;;;;29.80;26.65;;;17.30;99.90;;;;;;4994576;28;20046;-72
2023/07/03 08:53:22;;;;;;;30.65;26.75;;;17.30;99.90;;;;;;4978738;28;20580;-71
2023/07/03 08:55:57;;;;;;;30.52;27.30;;;17.30;99.90;;;;;;4995413;28;21234;-72
2023/07/03 08:58:24;;;;;;;29.27;26.40;;;17.40;99.90;;;;;;4995797;28;20100;-72
2023/07/03 09:01:10;;;;;;;29.00;26.35;;;17.30;99.90;;;;;;4998136;28;20074;-71
2023/07/03 09:03:58;;;;;;;31.02;28.33;;;17.20;99.90;;;;;;4993633;28;20077;-71
2023/07/03 09:06:33;;;;;;;30.10;26.85;;;17.10;99.90;;;;;;4997143;28;20052;-70
2023/07/03 09:09:00;;;;;;;29.65;27.25;;;16.90;99.90;;;;;;4998722;28;20048;-72
2023/07/03 09:11:30;;;;;;;28.80;26.20;;;16.60;99.90;;;;;;4997819;28;20050;-71
2023/07/03 09:14:01;;;;;;;29.73;26.88;;;16.50;99.90;;;;;;5000601;28;20046;-71
2023/07/03 09:16:28;;;;;;;29.73;27.15;;;16.40;99.90;;;;;;4993650;28;20129;-73
2023/07/03 09:19:05;;;;;;;30.42;27.27;;;16.60;99.90;;;;;;4995756;28;20037;-72
2023/07/03 09:21:34;;;;;;;30.20;27.27;;;16.80;99.90;;;;;;4995047;28;20046;-72
2023/07/03 09:24:23;;;;;;;30.77;27.90;;;16.90;99.90;;;;;;4998087;28;20061;-70
2023/07/03 09:27:08;;;;;;;30.33;27.35;;;17.00;99.90;;;;;;4995332;28;20520;-73
2023/07/03 09:29:37;;;;;;;29.92;27.02;;;17.20;99.90;;;;;;4995270;28;20048;-70
2023/07/03 09:32:04;;;;;;;29.20;26.33;;;17.20;99.90;;;;;;4997697;28;20762;-71
2023/07/03 09:35:08;;;;;;;33.05;26.67;;;17.40;99.90;;;;;;4991456;28;20046;-70
2023/07/03 09:37:37;;;;;;;29.60;26.33;;;17.60;99.90;;;;;;4992060;28;20066;-71
2023/07/03 09:40:12;;;;;;;29.75;26.25;;;17.50;99.90;;;;;;4998352;28;20470;-72
2023/07/03 09:42:40;;;;;;;29.30;26.20;;;17.40;99.90;;;;;;5007307;28;20046;-72
2023/07/03 09:45:34;;;;;;;32.08;28.80;;;17.10;99.90;;;;;;4982493;28;20041;-73
2023/07/03 09:48:02;;;;;;;32.05;28.67;;;16.80;99.90;;;;;;4988841;28;20602;-71
2023/07/03 09:50:38;;;;;;;33.85;27.80;;;16.60;99.90;;;;;;4991055;28;20045;-71
2023/07/03 09:53:26;;;;;;;31.35;28.38;;;16.50;99.90;;;;;;4989958;28;20041;-70
2023/07/03 09:55:58;;;;;;;30.52;27.63;;;16.50;99.90;;;;;;4993061;28;20726;-70
2023/07/03 09:58:27;;;;;;;31.10;27.95;;;16.60;99.90;;;;;;5001834;28;20081;-71
2023/07/03 10:00:58;;;;;;;29.42;26.50;;;16.70;99.90;;;;;;4979222;28;20057;-71
2023/07/03 10:03:28;;;;;;;31.70;26.52;;;16.60;99.90;;;;;;4988592;28;20046;-70
2023/07/03 10:06:03;;;;;;;29.75;26.85;;;16.60;99.90;;;;;;4993235;28;20041;-69
2023/07/03 10:08:39;;;;;;;28.75;26.05;;;16.60;99.90;;;;;;4989531;28;20046;-71
2023/07/03 10:11:06;;;;;;;31.05;27.88;;;16.70;99.90;;;;;;4993438;28;20749;-72
2023/07/03 10:13:44;;;;;;;32.40;29.35;;;16.80;99.90;;;;;;4990837;28;20072;-70
2023/07/03 10:16:14;;;;;;;30.90;28.25;;;16.90;99.90;;;;;;4995720;28;20111;-71
2023/07/03 10:18:48;;;;;;;29.20;26.48;;;17.30;99.90;;;;;;4998376;28;20053;-71
2023/07/03 10:21:20;;;;;;;29.63;26.63;;;17.60;99.90;;;;;;4992602;28;20503;-70
2023/07/03 10:23:48;;;;;;;30.17;26.05;;;17.60;99.90;;;;;;4994254;28;20053;-70
2023/07/03 10:26:47;;;;;;;30.10;27.65;;;17.40;99.90;;;;;;4992808;28;20045;-71
2023/07/03 10:29:28;;;;;;;30.33;27.67;;;17.50;99.90;;;;;;4990377;28;20136;-72
2023/07/03 10:31:59;;;;;;;28.98;26.42;;;17.30;99.90;;;;;;4990521;28;20077;-72
2023/07/03 10:34:37;;;;;;;28.70;26.30;;;17.20;99.90;;;;;;4990197;28;20046;-72
2023/07/03 10:37:06;;;;;;;29.58;26.90;;;17.40;99.90;;;;;;4988056;28;20103;-71
2023/07/03 10:39:41;;;;;;;29.42;26.85;;;17.60;99.90;;;;;;4989988;28;20049;-71
2023/07/03 10:42:29;;;;;;;28.88;26.08;;;17.60;99.90;;;;;;4995131;28;20064;-71
2023/07/03 10:45:02;;;;;;;29.75;26.95;;;17.70;99.90;;;;;;4995733;28;20121;-70
2023/07/03 10:47:32;;;;;;;29.98;27.08;;;17.70;99.90;;;;;;4999753;28;20060;-71
2023/07/03 10:50:00;;;;;;;30.83;27.92;;;17.40;99.90;;;;;;5003129;28;20245;-71
2023/07/03 10:52:40;;;;;;;31.27;28.17;;;17.40;99.90;;;;;;4998797;28;20112;-71
2023/07/03 10:55:15;;;;;;;32.13;28.98;;;17.20;99.90;;;;;;4992765;28;20080;-70
2023/07/03 10:58:14;;;;;;;32.13;28.83;;;17.10;99.90;;;;;;4993244;28;20619;-71
2023/07/03 11:00:56;;;;;;;33.83;30.80;;;17.20;99.90;;;;;;4959720;28;20045;-72
2023/07/03 11:03:44;;;;;;;32.92;29.85;;;17.40;99.90;;;;;;4994765;28;20741;-72
2023/07/03 11:06:18;;;;;;;37.60;27.83;;;17.90;99.90;;;;;;4993688;28;20030;-70
2023/07/03 11:08:59;;;;;;;35.63;27.58;;;18.30;99.90;;;;;;4989932;28;20478;-71
2023/07/03 11:11:40;;;;;;;31.23;28.00;;;18.50;99.90;;;;;;4986125;28;21240;-71
2023/07/03 11:14:30;;;;;;;31.30;28.17;;;18.30;99.90;;;;;;4990013;28;20053;-70
2023/07/03 11:17:12;;;;;;;31.95;28.75;;;17.80;99.90;;;;;;5017798;28;20824;-70
2023/07/03 11:20:10;;;;;;;34.45;30.15;;;17.50;99.90;;;;;;5006046;28;20050;-70
2023/07/03 11:22:50;;;;;;;33.35;29.48;;;17.50;99.90;;;;;;5006683;28;20054;-69
2023/07/03 11:25:21;;;;;;;33.67;30.40;;;17.60;99.90;;;;;;4995548;28;20053;-70
2023/07/03 11:28:00;;;;;;;33.60;30.02;;;18.00;99.90;;;;;;4978504;28;20050;-70
2023/07/03 11:30:27;;;;;;;33.67;30.38;;;18.50;99.90;;;;;;4990280;28;20050;-71
2023/07/03 11:32:57;;;;;;;34.92;31.25;;;18.80;99.90;;;;;;4990719;28;20199;-70
2023/07/03 11:35:23;;;;;;;31.20;27.58;;;19.30;99.90;;;;;;4988585;28;20037;-71
2023/07/03 11:38:06;;;;;;;33.28;29.80;;;19.70;99.90;;;;;;4990321;28;20133;-71
2023/07/03 11:40:39;;;;;;;31.48;28.77;;;19.60;99.90;;;;;;4987635;28;20038;-71
2023/07/03 11:43:15;;;;;;;33.63;30.40;;;19.60;99.90;;;;;;4992058;28;20062;-71
2023/07/03 11:46:31;;;;;;;32.78;29.35;;;19.70;99.90;;;;;;4988571;28;21027;-70
2023/07/03 11:48:58;;;;;;;32.67;29.38;;;19.70;99.90;;;;;;4981365;28;20039;-71
2023/07/03 11:51:37;;;;;;;29.67;26.70;;;19.70;99.90;;;;;;4990857;28;20046;-71
2023/07/03 11:54:19;;;;;;;32.97;28.08;;;19.60;99.90;;;;;;4992185;28;20444;-71
2023/07/03 11:56:52;;;;;;;30.85;27.75;;;19.40;99.90;;;;;;4991129;28;20462;-72
2023/07/03 11:59:22;;;;;;;29.88;27.10;;;19.30;99.90;;;;;;4993443;28;20034;-69
2023/07/03 12:02:13;;;;;;;30.85;27.75;;;19.10;99.90;;;;;;4991603;28;20045;-74
2023/07/03 12:04:43;;;;;;;31.55;28.33;;;18.90;99.90;;;;;;4990679;28;20506;-73
2023/07/03 12:07:21;;;;;;;34.70;31.67;;;18.70;99.90;;;;;;4997234;28;20512;-74
2023/07/03 12:09:49;;;;;;;30.88;27.92;;;18.70;99.90;;;;;;4988357;28;20045;-72
2023/07/03 12:12:24;;;;;;;32.05;29.00;;;19.10;99.90;;;;;;4993211;28;20694;-73
2023/07/03 12:15:01;;;;;;;30.50;27.27;;;19.30;99.90;;;;;;4989927;28;20244;-71
2023/07/03 12:17:31;;;;;;;30.40;27.80;;;19.50;99.90;;;;;;4991237;28;20045;-71
2023/07/03 12:20:17;;;;;;;30.63;27.90;;;19.30;99.90;;;;;;4993786;28;20046;-71
2023/07/03 12:22:50;;;;;;;30.80;28.10;;;19.20;99.90;;;;;;4990016;28;20100;-71
2023/07/03 12:25:22;;;;;;;32.67;29.60;;;19.00;99.90;;;;;;4993867;28;20418;-71
2023/07/03 12:27:50;;;;;;;32.60;29.15;;;18.80;99.90;;;;;;4994055;28;20073;-72
2023/07/03 12:30:27;;;;;;;31.73;29.02;;;18.70;99.90;;;;;;4993981;28;20140;-71
2023/07/03 12:32:55;;;;;;;32.83;29.45;;;18.50;99.90;;;;;;4994291;28;20108;-70
2023/07/03 12:35:23;;;;;;;30.70;28.02;;;18.40;99.90;;;;;;4993052;28;20033;-70
2023/07/03 12:37:55;;;;;;;31.95;28.92;;;18.30;99.90;;;;;;4993105;28;20088;-70
2023/07/03 12:40:24;;;;;;;29.17;26.60;;;18.30;99.90;;;;;;4991640;28;20054;-70
2023/07/03 12:42:54;;;;;;;30.10;27.40;;;18.70;99.90;;;;;;4991763;28;20048;-70
2023/07/03 12:45:23;;;;;;;29.75;26.92;;;18.90;99.90;;;;;;4992682;28;20076;-71
2023/07/03 12:48:04;;;;;;;30.25;27.92;;;19.20;99.90;;;;;;4992377;28;20606;-71